MMAS/AGU METAR and TAF weather

Enter ICAO airport designator
Station Type Date Time Source
MMAS METAR 2019/12/14 16:41 UTC NOAA

MMAS 141641Z 00000KT 10SM SKC 18/M09 A3029


Station Type Date Time Source
MMAS Decoded METAR 2019/12/14 16:41 UTC NOAA

Aguascalientes, Ags., Mexico (MMAS) 21-53N 102-18W
Dec 14, 2019 - 11:41 AM EST / 2019.12.14 1641 UTC
Wind: Calm:0
Visibility: 10 mile(s):0
Sky conditions: clear
Temperature: 64 F (18 C)
Dew Point: 15 F (-9 C)
Relative Humidity: 15%
Pressure (altimeter): 30.29 in. Hg (1025 hPa)
ob: MMAS 141641Z 00000KT 10SM SKC 18/M09 A3029
cycle: 16

Station Type Date Time Source
MMAS TAF 2019/12/14 18:36 UTC NOAA

TAF TAF MMAS 141633Z 1418/1518 18005KT P6SM SKC
BECMG 1420/1421 21010KT
FM150200 23006KT P6SM SKC
BECMG 1505/1506 00000KT
FM151200 21006KT P6SM SKC

Example: see airport list